createdAt,value
2019-03-26T00:00:58.891Z,2.40
2019-03-26T00:05:52.819Z,2.50
2019-03-26T00:10:46.753Z,2.57
2019-03-26T00:15:40.714Z,2.17
2019-03-26T00:20:34.776Z,2.60
2019-03-26T00:25:28.698Z,1.93
2019-03-26T00:30:22.623Z,2.20
2019-03-26T00:35:16.531Z,2.23
2019-03-26T00:40:10.477Z,2.13
2019-03-26T00:45:04.480Z,2.00
2019-03-26T00:49:58.428Z,1.83
2019-03-26T00:54:52.351Z,2.10
2019-03-26T00:59:46.422Z,2.03
2019-03-26T01:04:40.347Z,2.17
2019-03-26T01:09:34.409Z,1.90
2019-03-26T01:14:28.360Z,2.10
2019-03-26T01:19:22.477Z,2.00
2019-03-26T01:24:16.323Z,2.00
2019-03-26T01:29:10.264Z,2.07
2019-03-26T01:34:04.194Z,2.27
2019-03-26T01:38:58.391Z,2.03
2019-03-26T01:43:52.325Z,2.93
2019-03-26T01:48:46.401Z,2.20
2019-03-26T01:53:40.323Z,2.60
2019-03-26T01:58:34.405Z,2.43
2019-03-26T02:03:28.375Z,2.40
2019-03-26T02:08:22.294Z,1.90
2019-03-26T02:13:16.225Z,2.07
2019-03-26T02:18:10.317Z,2.27
2019-03-26T02:23:04.287Z,2.50
2019-03-26T02:27:58.285Z,2.00
2019-03-26T02:32:52.678Z,2.20
2019-03-26T02:37:47.560Z,2.50
2019-03-26T02:42:41.497Z,1.93
2019-03-26T02:47:35.486Z,2.73
2019-03-26T02:52:29.425Z,2.10
2019-03-26T02:57:23.503Z,2.40
2019-03-26T03:02:17.462Z,2.10
2019-03-26T03:07:11.469Z,1.87
2019-03-26T03:12:05.632Z,1.97
2019-03-26T03:17:02.331Z,1.90
2019-03-26T03:21:56.683Z,1.83
2019-03-26T03:26:50.978Z,2.50
2019-03-26T03:31:45.140Z,2.00
2019-03-26T03:36:39.068Z,1.70
2019-03-26T03:41:32.991Z,1.87
2019-03-26T03:46:27.130Z,1.80
2019-03-26T03:51:21.103Z,2.00
2019-03-26T03:56:15.031Z,1.70
2019-03-26T04:01:09.083Z,2.17
2019-03-26T04:06:09.530Z,2.07
2019-03-26T04:10:56.943Z,2.73
2019-03-26T04:15:50.861Z,2.07
2019-03-26T04:20:45.155Z,1.83
2019-03-26T04:25:39.096Z,1.97
2019-03-26T04:30:33.333Z,1.93
2019-03-26T04:35:27.255Z,1.97
2019-03-26T04:40:21.210Z,2.17
2019-03-26T04:45:15.109Z,2.17
2019-03-26T04:50:09.346Z,2.30
2019-03-26T04:55:03.272Z,1.93
2019-03-26T04:59:57.621Z,1.97
2019-03-26T05:04:51.564Z,1.90
2019-03-26T05:09:45.641Z,2.30
2019-03-26T05:14:39.624Z,2.10
2019-03-26T05:19:33.625Z,2.03
2019-03-26T05:24:27.559Z,1.97
2019-03-26T05:29:21.602Z,2.07
2019-03-26T05:34:15.537Z,2.70
2019-03-26T05:39:09.461Z,2.27
2019-03-26T05:44:09.103Z,2.57
2019-03-26T05:49:03.188Z,1.80
2019-03-26T05:53:57.119Z,2.17
2019-03-26T05:58:51.082Z,2.40
2019-03-26T06:03:45.025Z,2.63
2019-03-26T06:08:39.068Z,2.63
2019-03-26T06:13:32.999Z,3.17
2019-03-26T06:18:27.058Z,2.80
2019-03-26T06:23:20.999Z,2.67
2019-03-26T06:28:15.060Z,3.00
2019-03-26T06:33:08.999Z,3.50
2019-03-26T06:38:02.917Z,2.50
2019-03-26T06:42:57.460Z,2.67
2019-03-26T06:47:51.738Z,2.70
2019-03-26T06:52:45.601Z,2.33
2019-03-26T06:57:39.628Z,2.23
2019-03-26T07:02:33.570Z,2.47
2019-03-26T07:07:31.808Z,2.37
2019-03-26T07:12:21.567Z,2.73
2019-03-26T07:17:15.607Z,2.80
2019-03-26T07:22:09.591Z,2.90
2019-03-26T07:27:03.916Z,2.47
2019-03-26T07:31:57.845Z,2.43
2019-03-26T07:36:51.805Z,3.00
2019-03-26T07:41:45.713Z,2.57
2019-03-26T07:46:39.635Z,2.63
2019-03-26T07:51:33.548Z,2.93
2019-03-26T07:56:27.662Z,2.57
2019-03-26T08:01:21.856Z,2.40
2019-03-26T08:06:15.750Z,2.40
2019-03-26T08:11:09.841Z,2.57
2019-03-26T08:16:03.836Z,2.40
2019-03-26T08:20:57.844Z,2.47
2019-03-26T08:25:51.761Z,2.10
2019-03-26T08:30:45.821Z,2.43
2019-03-26T08:35:39.721Z,2.50
2019-03-26T08:40:33.942Z,2.80
2019-03-26T08:45:27.856Z,2.10
2019-03-26T08:50:21.819Z,2.77
2019-03-26T08:55:15.751Z,2.43
2019-03-26T09:00:09.794Z,2.50
2019-03-26T09:05:04.203Z,2.43
2019-03-26T09:09:58.382Z,2.03
2019-03-26T09:14:52.392Z,2.40
2019-03-26T09:19:46.373Z,2.83
2019-03-26T09:24:40.279Z,2.83
2019-03-26T09:29:34.411Z,2.70
2019-03-26T09:34:28.353Z,2.63
2019-03-26T09:39:22.334Z,2.50
2019-03-26T09:44:16.243Z,1.93
2019-03-26T09:49:10.355Z,2.20
2019-03-26T09:54:04.352Z,2.00
2019-03-26T09:58:58.320Z,2.67
2019-03-26T10:03:52.309Z,2.40
2019-03-26T10:08:52.455Z,2.80
2019-03-26T10:13:40.602Z,3.07
2019-03-26T10:18:34.601Z,2.70
2019-03-26T10:23:28.527Z,2.50
2019-03-26T10:28:22.587Z,2.83
2019-03-26T10:33:16.591Z,2.93
2019-03-26T10:38:10.567Z,2.53
2019-03-26T10:43:04.506Z,2.47
2019-03-26T10:47:58.558Z,2.53
2019-03-26T10:52:53.165Z,2.80
2019-03-26T10:57:47.165Z,2.50
2019-03-26T11:02:41.094Z,2.90
2019-03-26T11:07:35.186Z,2.93
2019-03-26T11:12:29.145Z,2.40
2019-03-26T11:17:23.124Z,2.53
2019-03-26T11:22:17.423Z,2.90
2019-03-26T11:27:11.358Z,2.30
2019-03-26T11:32:05.440Z,2.67
2019-03-26T11:36:59.407Z,2.57
2019-03-26T11:41:53.400Z,2.80
2019-03-26T11:46:47.348Z,2.77
2019-03-26T11:51:41.999Z,2.60
2019-03-26T11:56:36.001Z,3.20
2019-03-26T12:01:29.933Z,3.10
2019-03-26T12:06:23.852Z,2.10
2019-03-26T12:11:17.977Z,2.60
2019-03-26T12:16:11.905Z,2.53
2019-03-26T12:21:05.987Z,2.63
2019-03-26T12:25:59.923Z,2.40
2019-03-26T12:30:53.965Z,2.60
2019-03-26T12:35:47.940Z,2.77
2019-03-26T12:40:41.939Z,2.60
2019-03-26T12:45:35.865Z,2.30
2019-03-26T12:50:32.205Z,2.57
2019-03-26T12:55:23.732Z,2.50
2019-03-26T13:00:18.250Z,2.50
2019-03-26T13:05:12.178Z,3.07
2019-03-26T13:10:13.590Z,2.17
2019-03-26T13:15:00.391Z,2.07
2019-03-26T13:19:54.200Z,1.70
2019-03-26T13:24:48.150Z,2.03
2019-03-26T13:29:43.798Z,2.87
2019-03-26T13:34:36.126Z,2.10
2019-03-26T13:39:30.163Z,2.10
2019-03-26T13:44:24.175Z,2.07
2019-03-26T13:49:18.227Z,1.97
2019-03-26T13:54:12.465Z,1.93
2019-03-26T13:59:06.464Z,1.67
2019-03-26T14:04:00.441Z,1.93
2019-03-26T14:08:54.435Z,2.07
2019-03-26T14:13:48.431Z,1.87
2019-03-26T14:18:42.480Z,1.70
2019-03-26T14:23:36.810Z,2.43
2019-03-26T14:28:31.028Z,1.53
2019-03-26T14:33:24.962Z,1.90
2019-03-26T14:38:19.017Z,2.63
2019-03-26T14:43:12.939Z,1.97
2019-03-26T14:48:07.003Z,2.13
2019-03-26T14:53:01.082Z,2.07
2019-03-26T14:57:55.294Z,2.07
2019-03-26T15:02:49.304Z,1.73
2019-03-26T15:07:43.327Z,1.87
2019-03-26T15:12:40.096Z,2.43
2019-03-26T15:17:34.383Z,1.70
2019-03-26T15:22:28.343Z,1.63
2019-03-26T15:27:22.354Z,1.70
2019-03-26T15:32:16.362Z,1.70
2019-03-26T15:37:10.329Z,2.00
2019-03-26T15:42:04.286Z,1.73
2019-03-26T15:46:58.324Z,1.50
2019-03-26T15:51:52.244Z,1.20
2019-03-26T15:56:46.182Z,1.60
2019-03-26T16:01:40.291Z,1.40
2019-03-26T16:06:34.242Z,1.30
2019-03-26T16:11:35.693Z,1.40
2019-03-26T16:16:22.260Z,1.43
2019-03-26T16:21:16.259Z,1.50
2019-03-26T16:26:10.185Z,1.20
2019-03-26T16:31:04.300Z,1.40
2019-03-26T16:35:58.243Z,1.60
2019-03-26T16:40:52.231Z,2.00
2019-03-26T16:45:46.212Z,1.80
2019-03-26T16:50:40.226Z,2.10
2019-03-26T16:55:34.216Z,2.30
2019-03-26T17:00:31.923Z,2.67
2019-03-26T17:05:26.421Z,2.57
2019-03-26T17:10:20.498Z,2.77
2019-03-26T17:15:14.422Z,1.97
2019-03-26T17:20:08.486Z,2.30
2019-03-26T17:25:02.394Z,2.40
2019-03-26T17:29:56.550Z,2.30
2019-03-26T17:34:50.469Z,2.33
2019-03-26T17:39:44.462Z,2.20
2019-03-26T17:44:38.356Z,2.07
2019-03-26T17:49:32.508Z,2.00
2019-03-26T17:54:26.481Z,2.20
2019-03-26T17:59:20.439Z,1.93
2019-03-26T18:04:14.350Z,2.00
2019-03-26T18:09:08.440Z,2.03
2019-03-26T18:14:02.374Z,1.70
2019-03-26T18:18:56.323Z,2.10
2019-03-26T18:23:50.263Z,2.20
2019-03-26T18:28:44.396Z,1.63
2019-03-26T18:33:38.384Z,1.97
2019-03-26T18:38:32.430Z,1.93
2019-03-26T18:43:28.006Z,1.90
2019-03-26T18:48:20.689Z,2.52
2019-03-26T18:53:14.626Z,2.43
2019-03-26T18:58:08.677Z,2.00
2019-03-26T19:03:02.701Z,1.93
2019-03-26T19:07:56.961Z,2.10
2019-03-26T19:12:56.761Z,1.83
2019-03-26T19:17:45.024Z,2.10
2019-03-26T19:22:38.896Z,1.77
2019-03-26T19:27:32.913Z,1.73
2019-03-26T19:32:26.940Z,1.60
2019-03-26T19:37:22.157Z,1.93
2019-03-26T19:42:21.677Z,2.10
2019-03-26T19:47:15.668Z,1.77
2019-03-26T19:52:09.630Z,1.53
2019-03-26T19:57:04.140Z,2.10
2019-03-26T20:01:58.097Z,2.20
2019-03-26T20:06:52.037Z,2.47
2019-03-26T20:11:45.986Z,1.40
2019-03-26T20:16:41.977Z,2.07
2019-03-26T20:21:33.929Z,2.30
2019-03-26T20:26:27.860Z,2.00
2019-03-26T20:31:21.943Z,2.07
2019-03-26T20:36:15.904Z,2.20
2019-03-26T20:41:09.883Z,2.40
2019-03-26T20:46:03.953Z,1.97
2019-03-26T20:50:58.207Z,1.63
2019-03-26T20:55:54.682Z,2.13
2019-03-26T21:00:46.191Z,1.67
2019-03-26T21:05:40.094Z,1.70
2019-03-26T21:10:34.164Z,1.80
2019-03-26T21:15:28.111Z,1.97
2019-03-26T21:20:22.199Z,2.10
2019-03-26T21:25:16.433Z,2.27
2019-03-26T21:30:13.957Z,1.43
2019-03-26T21:35:04.512Z,1.60
2019-03-26T21:39:58.754Z,1.60
2019-03-26T21:44:52.699Z,2.10
2019-03-26T21:49:48.483Z,1.60
2019-03-26T21:54:40.646Z,1.60
2019-03-26T21:59:34.578Z,2.17
2019-03-26T22:04:28.540Z,1.33
2019-03-26T22:09:22.725Z,1.30
2019-03-26T22:14:18.229Z,1.70
2019-03-26T22:19:10.666Z,1.43
2019-03-26T22:24:04.695Z,1.63
2019-03-26T22:28:58.666Z,1.90
2019-03-26T22:33:52.642Z,1.87
2019-03-26T22:38:46.655Z,2.10
2019-03-26T22:43:40.576Z,1.50
2019-03-26T22:48:34.689Z,1.57
2019-03-26T22:53:28.675Z,2.03
2019-03-26T22:58:22.628Z,1.40
2019-03-26T23:03:16.564Z,1.90
2019-03-26T23:08:10.641Z,1.47
2019-03-26T23:13:04.628Z,1.90
2019-03-26T23:17:58.599Z,1.53
2019-03-26T23:22:52.519Z,1.57
2019-03-26T23:27:46.606Z,2.23
2019-03-26T23:32:40.529Z,1.87
2019-03-26T23:37:34.571Z,1.53
2019-03-26T23:42:28.605Z,1.70
2019-03-26T23:47:22.559Z,1.73
2019-03-26T23:52:16.511Z,1.67
2019-03-26T23:57:10.463Z,1.77
